sensor_id;sensor_type;location;lat;lon;timestamp;temperature;humidity
802;DHT22;383;48.766;9.270;2023-07-20T00:00:40;22.00;61.80
802;DHT22;383;48.766;9.270;2023-07-20T00:03:11;21.90;62.20
802;DHT22;383;48.766;9.270;2023-07-20T00:05:45;21.90;62.20
802;DHT22;383;48.766;9.270;2023-07-20T00:08:13;21.80;62.60
802;DHT22;383;48.766;9.270;2023-07-20T00:10:40;21.80;62.30
802;DHT22;383;48.766;9.270;2023-07-20T00:13:07;21.80;62.30
802;DHT22;383;48.766;9.270;2023-07-20T00:15:34;21.80;62.50
802;DHT22;383;48.766;9.270;2023-07-20T00:18:01;21.70;61.70
802;DHT22;383;48.766;9.270;2023-07-20T00:20:27;21.60;61.40
802;DHT22;383;48.766;9.270;2023-07-20T00:22:54;21.50;61.40
802;DHT22;383;48.766;9.270;2023-07-20T00:25:24;21.50;61.70
802;DHT22;383;48.766;9.270;2023-07-20T00:27:51;21.40;60.50
802;DHT22;383;48.766;9.270;2023-07-20T00:30:18;21.40;60.60
802;DHT22;383;48.766;9.270;2023-07-20T00:32:45;21.30;61.30
802;DHT22;383;48.766;9.270;2023-07-20T00:35:12;21.30;61.50
802;DHT22;383;48.766;9.270;2023-07-20T00:37:39;21.30;61.10
802;DHT22;383;48.766;9.270;2023-07-20T00:40:07;21.20;58.70
802;DHT22;383;48.766;9.270;2023-07-20T00:42:35;21.20;59.30
802;DHT22;383;48.766;9.270;2023-07-20T00:45:02;21.10;58.70
802;DHT22;383;48.766;9.270;2023-07-20T00:47:29;21.10;58.50
802;DHT22;383;48.766;9.270;2023-07-20T00:49:55;21.10;58.80
802;DHT22;383;48.766;9.270;2023-07-20T00:52:23;21.10;59.00
802;DHT22;383;48.766;9.270;2023-07-20T00:54:52;21.00;58.00
802;DHT22;383;48.766;9.270;2023-07-20T00:57:23;21.00;58.60
802;DHT22;383;48.766;9.270;2023-07-20T00:59:52;20.90;59.00
802;DHT22;383;48.766;9.270;2023-07-20T01:02:18;20.90;59.00
802;DHT22;383;48.766;9.270;2023-07-20T01:04:45;20.90;59.10
802;DHT22;383;48.766;9.270;2023-07-20T01:07:17;20.90;59.00
802;DHT22;383;48.766;9.270;2023-07-20T01:09:50;20.90;58.60
802;DHT22;383;48.766;9.270;2023-07-20T01:12:22;20.80;59.30
802;DHT22;383;48.766;9.270;2023-07-20T01:14:53;20.80;59.00
802;DHT22;383;48.766;9.270;2023-07-20T01:17:20;20.80;59.20
802;DHT22;383;48.766;9.270;2023-07-20T01:19:47;20.70;59.30
802;DHT22;383;48.766;9.270;2023-07-20T01:22:27;20.70;59.50
802;DHT22;383;48.766;9.270;2023-07-20T01:25:21;20.70;59.30
802;DHT22;383;48.766;9.270;2023-07-20T01:28:17;20.60;59.70
802;DHT22;383;48.766;9.270;2023-07-20T01:30:56;20.60;59.80
802;DHT22;383;48.766;9.270;2023-07-20T01:33:28;20.50;60.00
802;DHT22;383;48.766;9.270;2023-07-20T01:35:58;20.50;60.80
802;DHT22;383;48.766;9.270;2023-07-20T01:38:26;20.50;61.10
802;DHT22;383;48.766;9.270;2023-07-20T01:40:53;20.50;61.30
802;DHT22;383;48.766;9.270;2023-07-20T01:43:20;20.40;61.10
802;DHT22;383;48.766;9.270;2023-07-20T01:45:46;20.30;61.90
802;DHT22;383;48.766;9.270;2023-07-20T01:48:13;20.20;62.70
802;DHT22;383;48.766;9.270;2023-07-20T01:50:41;20.20;62.70
802;DHT22;383;48.766;9.270;2023-07-20T01:53:08;20.20;63.00
802;DHT22;383;48.766;9.270;2023-07-20T01:55:35;20.10;63.50
802;DHT22;383;48.766;9.270;2023-07-20T01:58:01;20.10;63.50
802;DHT22;383;48.766;9.270;2023-07-20T02:00:29;20.00;63.80
802;DHT22;383;48.766;9.270;2023-07-20T02:02:55;20.00;64.20
802;DHT22;383;48.766;9.270;2023-07-20T02:05:22;20.00;64.10
802;DHT22;383;48.766;9.270;2023-07-20T02:07:50;20.00;64.90
802;DHT22;383;48.766;9.270;2023-07-20T02:10:17;20.00;65.00
802;DHT22;383;48.766;9.270;2023-07-20T02:12:43;19.90;65.10
802;DHT22;383;48.766;9.270;2023-07-20T02:15:11;19.80;65.40
802;DHT22;383;48.766;9.270;2023-07-20T02:17:38;19.60;66.00
802;DHT22;383;48.766;9.270;2023-07-20T02:20:07;19.70;66.00
802;DHT22;383;48.766;9.270;2023-07-20T02:22:35;19.50;66.60
802;DHT22;383;48.766;9.270;2023-07-20T02:25:04;19.40;67.00
802;DHT22;383;48.766;9.270;2023-07-20T02:27:31;19.20;67.60
802;DHT22;383;48.766;9.270;2023-07-20T02:29:58;19.10;68.30
802;DHT22;383;48.766;9.270;2023-07-20T02:32:25;19.00;68.70
802;DHT22;383;48.766;9.270;2023-07-20T02:34:51;19.00;69.20
802;DHT22;383;48.766;9.270;2023-07-20T02:37:18;19.00;69.10
802;DHT22;383;48.766;9.270;2023-07-20T02:39:45;18.90;69.60
802;DHT22;383;48.766;9.270;2023-07-20T02:42:13;18.80;69.90
802;DHT22;383;48.766;9.270;2023-07-20T02:44:39;18.70;70.10
802;DHT22;383;48.766;9.270;2023-07-20T02:47:06;18.60;70.50
802;DHT22;383;48.766;9.270;2023-07-20T02:49:33;18.50;71.20
802;DHT22;383;48.766;9.270;2023-07-20T02:52:00;18.40;72.00
802;DHT22;383;48.766;9.270;2023-07-20T02:54:26;18.40;71.70
802;DHT22;383;48.766;9.270;2023-07-20T02:56:53;18.40;72.00
802;DHT22;383;48.766;9.270;2023-07-20T02:59:21;18.30;72.40
802;DHT22;383;48.766;9.270;2023-07-20T03:01:48;18.20;72.80
802;DHT22;383;48.766;9.270;2023-07-20T03:04:15;18.20;73.20
802;DHT22;383;48.766;9.270;2023-07-20T03:06:41;18.10;73.40
802;DHT22;383;48.766;9.270;2023-07-20T03:09:08;18.00;73.60
802;DHT22;383;48.766;9.270;2023-07-20T03:11:35;18.00;73.80
802;DHT22;383;48.766;9.270;2023-07-20T03:14:02;17.90;74.20
802;DHT22;383;48.766;9.270;2023-07-20T03:16:30;17.90;74.80
802;DHT22;383;48.766;9.270;2023-07-20T03:18:58;17.90;74.80
802;DHT22;383;48.766;9.270;2023-07-20T03:21:25;17.90;74.90
802;DHT22;383;48.766;9.270;2023-07-20T03:23:51;17.80;75.00
802;DHT22;383;48.766;9.270;2023-07-20T03:26:19;17.80;75.20
802;DHT22;383;48.766;9.270;2023-07-20T03:28:46;17.80;75.30
802;DHT22;383;48.766;9.270;2023-07-20T03:31:13;17.70;75.70
802;DHT22;383;48.766;9.270;2023-07-20T03:33:41;17.60;75.80
802;DHT22;383;48.766;9.270;2023-07-20T03:36:08;17.50;76.50
802;DHT22;383;48.766;9.270;2023-07-20T03:38:36;17.40;77.00
802;DHT22;383;48.766;9.270;2023-07-20T03:41:02;17.40;77.10
802;DHT22;383;48.766;9.270;2023-07-20T03:43:29;17.30;77.30
802;DHT22;383;48.766;9.270;2023-07-20T03:45:56;17.20;77.70
802;DHT22;383;48.766;9.270;2023-07-20T03:48:24;17.20;77.80
802;DHT22;383;48.766;9.270;2023-07-20T03:50:53;17.30;77.50
802;DHT22;383;48.766;9.270;2023-07-20T03:53:20;17.30;77.50
802;DHT22;383;48.766;9.270;2023-07-20T03:55:47;17.30;77.40
802;DHT22;383;48.766;9.270;2023-07-20T03:58:15;17.30;77.70
802;DHT22;383;48.766;9.270;2023-07-20T04:00:44;17.30;77.80
802;DHT22;383;48.766;9.270;2023-07-20T04:03:11;17.40;77.40
802;DHT22;383;48.766;9.270;2023-07-20T04:05:38;17.30;77.80
802;DHT22;383;48.766;9.270;2023-07-20T04:08:06;17.30;77.50
802;DHT22;383;48.766;9.270;2023-07-20T04:10:33;17.20;78.30
802;DHT22;383;48.766;9.270;2023-07-20T04:13:00;17.30;78.10
802;DHT22;383;48.766;9.270;2023-07-20T04:15:27;17.30;77.90
802;DHT22;383;48.766;9.270;2023-07-20T04:17:54;17.30;78.10
802;DHT22;383;48.766;9.270;2023-07-20T04:20:21;17.40;77.70
802;DHT22;383;48.766;9.270;2023-07-20T04:22:47;17.30;78.20
802;DHT22;383;48.766;9.270;2023-07-20T04:25:16;17.30;78.70
802;DHT22;383;48.766;9.270;2023-07-20T04:27:42;17.40;78.50
802;DHT22;383;48.766;9.270;2023-07-20T04:30:10;17.40;78.50
802;DHT22;383;48.766;9.270;2023-07-20T04:32:37;17.40;78.60
802;DHT22;383;48.766;9.270;2023-07-20T04:35:06;17.40;78.70
802;DHT22;383;48.766;9.270;2023-07-20T04:37:33;17.40;78.90
802;DHT22;383;48.766;9.270;2023-07-20T04:40:00;17.50;79.00
802;DHT22;383;48.766;9.270;2023-07-20T04:42:28;17.60;78.70
802;DHT22;383;48.766;9.270;2023-07-20T04:44:55;17.60;78.20
802;DHT22;383;48.766;9.270;2023-07-20T04:47:21;17.60;78.60
802;DHT22;383;48.766;9.270;2023-07-20T04:49:48;17.70;78.30
802;DHT22;383;48.766;9.270;2023-07-20T04:52:15;17.80;78.30
802;DHT22;383;48.766;9.270;2023-07-20T04:54:41;17.80;78.10
802;DHT22;383;48.766;9.270;2023-07-20T04:57:11;17.90;78.30
802;DHT22;383;48.766;9.270;2023-07-20T04:59:39;18.00;78.10
802;DHT22;383;48.766;9.270;2023-07-20T05:02:05;18.00;78.20
802;DHT22;383;48.766;9.270;2023-07-20T05:04:32;18.10;77.70
802;DHT22;383;48.766;9.270;2023-07-20T05:06:59;18.10;77.90
802;DHT22;383;48.766;9.270;2023-07-20T05:09:26;18.20;78.30
802;DHT22;383;48.766;9.270;2023-07-20T05:11:52;18.30;78.20
802;DHT22;383;48.766;9.270;2023-07-20T05:14:19;18.50;77.50
802;DHT22;383;48.766;9.270;2023-07-20T05:16:47;18.60;77.10
802;DHT22;383;48.766;9.270;2023-07-20T05:19:14;18.70;77.70
802;DHT22;383;48.766;9.270;2023-07-20T05:21:40;18.80;77.70
802;DHT22;383;48.766;9.270;2023-07-20T05:24:07;19.00;75.70
802;DHT22;383;48.766;9.270;2023-07-20T05:26:34;19.10;76.20
802;DHT22;383;48.766;9.270;2023-07-20T05:29:01;19.20;76.10
802;DHT22;383;48.766;9.270;2023-07-20T05:31:27;19.30;75.80
802;DHT22;383;48.766;9.270;2023-07-20T05:33:57;19.50;76.10
802;DHT22;383;48.766;9.270;2023-07-20T05:36:24;19.60;76.50
802;DHT22;383;48.766;9.270;2023-07-20T05:38:51;19.70;76.20
802;DHT22;383;48.766;9.270;2023-07-20T05:41:17;19.90;75.00
802;DHT22;383;48.766;9.270;2023-07-20T05:43:44;20.00;73.20
802;DHT22;383;48.766;9.270;2023-07-20T05:46:11;20.10;74.50
802;DHT22;383;48.766;9.270;2023-07-20T05:48:37;20.20;74.50
802;DHT22;383;48.766;9.270;2023-07-20T05:51:06;20.40;73.60
802;DHT22;383;48.766;9.270;2023-07-20T05:53:33;20.40;72.50
802;DHT22;383;48.766;9.270;2023-07-20T05:56:00;20.60;71.50
802;DHT22;383;48.766;9.270;2023-07-20T05:58:26;20.60;70.90
802;DHT22;383;48.766;9.270;2023-07-20T06:00:53;20.70;69.20
802;DHT22;383;48.766;9.270;2023-07-20T06:03:20;20.70;70.10
802;DHT22;383;48.766;9.270;2023-07-20T06:05:47;20.80;70.00
802;DHT22;383;48.766;9.270;2023-07-20T06:08:15;20.90;70.50
802;DHT22;383;48.766;9.270;2023-07-20T06:10:42;21.00;69.20
802;DHT22;383;48.766;9.270;2023-07-20T06:13:09;21.10;67.80
802;DHT22;383;48.766;9.270;2023-07-20T06:15:36;21.30;65.10
802;DHT22;383;48.766;9.270;2023-07-20T06:18:04;21.40;64.10
802;DHT22;383;48.766;9.270;2023-07-20T06:20:31;21.50;63.80
802;DHT22;383;48.766;9.270;2023-07-20T06:22:57;21.70;64.30
802;DHT22;383;48.766;9.270;2023-07-20T06:25:26;21.80;63.80
802;DHT22;383;48.766;9.270;2023-07-20T06:27:54;22.00;63.50
802;DHT22;383;48.766;9.270;2023-07-20T06:30:21;22.10;62.20
802;DHT22;383;48.766;9.270;2023-07-20T06:32:48;22.10;61.70
802;DHT22;383;48.766;9.270;2023-07-20T06:35:15;22.10;62.70
802;DHT22;383;48.766;9.270;2023-07-20T06:37:42;22.30;62.70
802;DHT22;383;48.766;9.270;2023-07-20T06:40:10;22.30;62.70
802;DHT22;383;48.766;9.270;2023-07-20T06:42:38;22.30;61.50
802;DHT22;383;48.766;9.270;2023-07-20T06:45:06;22.40;61.00
802;DHT22;383;48.766;9.270;2023-07-20T06:47:32;22.40;61.00
802;DHT22;383;48.766;9.270;2023-07-20T06:49:59;22.40;61.90
802;DHT22;383;48.766;9.270;2023-07-20T06:52:26;22.40;61.80
802;DHT22;383;48.766;9.270;2023-07-20T06:54:53;22.30;62.20
802;DHT22;383;48.766;9.270;2023-07-20T06:57:19;22.50;61.10
802;DHT22;383;48.766;9.270;2023-07-20T06:59:47;22.50;61.50
802;DHT22;383;48.766;9.270;2023-07-20T07:02:14;22.60;61.70
802;DHT22;383;48.766;9.270;2023-07-20T07:04:41;22.70;61.40
802;DHT22;383;48.766;9.270;2023-07-20T07:07:08;22.70;60.60
802;DHT22;383;48.766;9.270;2023-07-20T07:09:35;22.80;60.50
802;DHT22;383;48.766;9.270;2023-07-20T07:12:02;22.90;60.60
802;DHT22;383;48.766;9.270;2023-07-20T07:14:28;23.10;60.80
802;DHT22;383;48.766;9.270;2023-07-20T07:16:56;23.10;60.20
802;DHT22;383;48.766;9.270;2023-07-20T07:19:23;23.30;59.20
802;DHT22;383;48.766;9.270;2023-07-20T07:21:50;23.20;58.60
802;DHT22;383;48.766;9.270;2023-07-20T07:24:17;23.10;59.50
802;DHT22;383;48.766;9.270;2023-07-20T07:26:43;23.00;59.50
802;DHT22;383;48.766;9.270;2023-07-20T07:29:10;22.90;59.70
802;DHT22;383;48.766;9.270;2023-07-20T07:31:37;22.90;59.70
802;DHT22;383;48.766;9.270;2023-07-20T07:34:05;22.90;59.30
802;DHT22;383;48.766;9.270;2023-07-20T07:36:32;22.90;59.80
802;DHT22;383;48.766;9.270;2023-07-20T07:38:59;22.90;60.60
802;DHT22;383;48.766;9.270;2023-07-20T07:41:25;22.90;59.80
802;DHT22;383;48.766;9.270;2023-07-20T07:43:52;23.00;59.30
802;DHT22;383;48.766;9.270;2023-07-20T07:46:19;23.00;59.20
802;DHT22;383;48.766;9.270;2023-07-20T07:48:45;23.00;60.20
802;DHT22;383;48.766;9.270;2023-07-20T07:51:14;23.10;59.50
802;DHT22;383;48.766;9.270;2023-07-20T07:53:40;23.30;59.50
802;DHT22;383;48.766;9.270;2023-07-20T07:56:07;23.40;58.50
802;DHT22;383;48.766;9.270;2023-07-20T07:58:34;23.50;58.50
802;DHT22;383;48.766;9.270;2023-07-20T08:01:01;23.60;58.10
802;DHT22;383;48.766;9.270;2023-07-20T08:03:28;23.50;58.10
802;DHT22;383;48.766;9.270;2023-07-20T08:05:55;23.60;58.10
802;DHT22;383;48.766;9.270;2023-07-20T08:08:23;23.70;57.20
802;DHT22;383;48.766;9.270;2023-07-20T08:10:53;23.70;57.00
802;DHT22;383;48.766;9.270;2023-07-20T08:13:19;23.80;56.40
802;DHT22;383;48.766;9.270;2023-07-20T08:15:52;23.90;56.10
802;DHT22;383;48.766;9.270;2023-07-20T08:18:19;24.10;56.20
802;DHT22;383;48.766;9.270;2023-07-20T08:20:46;24.40;55.50
802;DHT22;383;48.766;9.270;2023-07-20T08:23:14;24.60;54.60
802;DHT22;383;48.766;9.270;2023-07-20T08:25:43;24.80;53.40
802;DHT22;383;48.766;9.270;2023-07-20T08:28:10;24.90;54.00
802;DHT22;383;48.766;9.270;2023-07-20T08:30:41;25.00;53.50
802;DHT22;383;48.766;9.270;2023-07-20T08:33:08;25.00;53.10
802;DHT22;383;48.766;9.270;2023-07-20T08:35:35;25.00;52.40
802;DHT22;383;48.766;9.270;2023-07-20T08:38:02;25.10;51.90
802;DHT22;383;48.766;9.270;2023-07-20T08:40:30;25.10;51.80
802;DHT22;383;48.766;9.270;2023-07-20T08:42:58;25.30;52.00
802;DHT22;383;48.766;9.270;2023-07-20T08:45:26;25.50;51.50
802;DHT22;383;48.766;9.270;2023-07-20T08:47:54;25.70;50.50
802;DHT22;383;48.766;9.270;2023-07-20T08:50:22;25.60;50.30
802;DHT22;383;48.766;9.270;2023-07-20T08:52:52;25.50;50.90
802;DHT22;383;48.766;9.270;2023-07-20T08:55:20;25.30;50.90
802;DHT22;383;48.766;9.270;2023-07-20T08:57:50;25.20;51.60
802;DHT22;383;48.766;9.270;2023-07-20T09:00:19;25.00;51.40
802;DHT22;383;48.766;9.270;2023-07-20T09:02:48;25.10;51.40
802;DHT22;383;48.766;9.270;2023-07-20T09:05:15;25.30;50.50
802;DHT22;383;48.766;9.270;2023-07-20T09:07:42;25.20;49.20
802;DHT22;383;48.766;9.270;2023-07-20T09:10:10;25.10;50.80
802;DHT22;383;48.766;9.270;2023-07-20T09:12:38;25.00;50.70
802;DHT22;383;48.766;9.270;2023-07-20T09:15:06;24.70;51.60
802;DHT22;383;48.766;9.270;2023-07-20T09:17:34;24.80;51.60
802;DHT22;383;48.766;9.270;2023-07-20T09:20:02;24.80;50.70
802;DHT22;383;48.766;9.270;2023-07-20T09:22:33;24.80;50.40
802;DHT22;383;48.766;9.270;2023-07-20T09:25:00;24.80;51.00
802;DHT22;383;48.766;9.270;2023-07-20T09:27:35;25.20;51.50
802;DHT22;383;48.766;9.270;2023-07-20T09:30:04;25.50;50.70
802;DHT22;383;48.766;9.270;2023-07-20T09:32:38;25.80;48.70
802;DHT22;383;48.766;9.270;2023-07-20T09:35:06;26.20;48.40
802;DHT22;383;48.766;9.270;2023-07-20T09:37:33;26.20;47.80
802;DHT22;383;48.766;9.270;2023-07-20T09:40:00;26.40;47.90
802;DHT22;383;48.766;9.270;2023-07-20T09:42:26;26.40;47.80
802;DHT22;383;48.766;9.270;2023-07-20T09:44:53;26.30;47.70
802;DHT22;383;48.766;9.270;2023-07-20T09:47:24;26.30;47.90
802;DHT22;383;48.766;9.270;2023-07-20T09:49:58;26.20;47.60
802;DHT22;383;48.766;9.270;2023-07-20T09:52:26;26.30;47.90
802;DHT22;383;48.766;9.270;2023-07-20T09:54:53;26.10;48.40
802;DHT22;383;48.766;9.270;2023-07-20T09:57:21;26.00;48.40
802;DHT22;383;48.766;9.270;2023-07-20T09:59:48;25.90;47.90
802;DHT22;383;48.766;9.270;2023-07-20T10:02:20;25.90;48.60
802;DHT22;383;48.766;9.270;2023-07-20T10:04:47;25.70;47.90
802;DHT22;383;48.766;9.270;2023-07-20T10:07:17;25.50;48.30
802;DHT22;383;48.766;9.270;2023-07-20T10:09:48;25.50;48.70
802;DHT22;383;48.766;9.270;2023-07-20T10:12:15;25.70;48.30
802;DHT22;383;48.766;9.270;2023-07-20T10:14:50;25.90;47.90
802;DHT22;383;48.766;9.270;2023-07-20T10:17:19;26.20;46.70
802;DHT22;383;48.766;9.270;2023-07-20T10:19:50;26.40;46.40
802;DHT22;383;48.766;9.270;2023-07-20T10:22:22;26.80;47.60
802;DHT22;383;48.766;9.270;2023-07-20T10:24:51;27.30;45.50
802;DHT22;383;48.766;9.270;2023-07-20T10:27:20;27.30;43.80
802;DHT22;383;48.766;9.270;2023-07-20T10:29:47;27.20;44.60
802;DHT22;383;48.766;9.270;2023-07-20T10:32:14;27.10;45.50
802;DHT22;383;48.766;9.270;2023-07-20T10:34:41;27.00;45.60
802;DHT22;383;48.766;9.270;2023-07-20T10:37:08;26.60;44.50
802;DHT22;383;48.766;9.270;2023-07-20T10:39:36;26.60;46.30
802;DHT22;383;48.766;9.270;2023-07-20T10:42:06;26.70;45.60
802;DHT22;383;48.766;9.270;2023-07-20T10:44:33;26.90;43.80
802;DHT22;383;48.766;9.270;2023-07-20T10:47:01;26.90;44.20
802;DHT22;383;48.766;9.270;2023-07-20T10:49:28;26.80;43.80
802;DHT22;383;48.766;9.270;2023-07-20T10:51:58;26.80;44.30
802;DHT22;383;48.766;9.270;2023-07-20T10:54:47;26.80;43.00
802;DHT22;383;48.766;9.270;2023-07-20T10:57:31;26.80;45.00
802;DHT22;383;48.766;9.270;2023-07-20T11:00:09;27.10;43.30
802;DHT22;383;48.766;9.270;2023-07-20T11:02:44;27.10;43.60
802;DHT22;383;48.766;9.270;2023-07-20T11:05:33;27.10;43.00
802;DHT22;383;48.766;9.270;2023-07-20T11:08:00;27.00;43.60
802;DHT22;383;48.766;9.270;2023-07-20T11:10:30;27.00;43.70
802;DHT22;383;48.766;9.270;2023-07-20T11:13:16;27.20;43.50
802;DHT22;383;48.766;9.270;2023-07-20T11:15:45;27.50;43.80
802;DHT22;383;48.766;9.270;2023-07-20T11:18:12;27.70;40.70
802;DHT22;383;48.766;9.270;2023-07-20T11:20:40;27.70;41.10
802;DHT22;383;48.766;9.270;2023-07-20T11:23:07;27.70;40.50
802;DHT22;383;48.766;9.270;2023-07-20T11:25:39;27.60;41.10
802;DHT22;383;48.766;9.270;2023-07-20T11:28:07;27.70;41.50
802;DHT22;383;48.766;9.270;2023-07-20T11:30:34;27.80;41.20
802;DHT22;383;48.766;9.270;2023-07-20T11:33:01;28.00;41.20
802;DHT22;383;48.766;9.270;2023-07-20T11:35:28;27.80;39.50
802;DHT22;383;48.766;9.270;2023-07-20T11:37:55;27.70;41.00
802;DHT22;383;48.766;9.270;2023-07-20T11:40:22;27.70;40.50
802;DHT22;383;48.766;9.270;2023-07-20T11:42:51;27.60;39.00
802;DHT22;383;48.766;9.270;2023-07-20T11:45:19;27.60;40.20
802;DHT22;383;48.766;9.270;2023-07-20T11:47:45;27.70;39.00
802;DHT22;383;48.766;9.270;2023-07-20T11:50:12;27.50;39.50
802;DHT22;383;48.766;9.270;2023-07-20T11:52:40;27.50;40.20
802;DHT22;383;48.766;9.270;2023-07-20T11:55:07;27.80;39.30
802;DHT22;383;48.766;9.270;2023-07-20T11:57:34;27.80;40.40
802;DHT22;383;48.766;9.270;2023-07-20T12:00:04;27.90;39.60
802;DHT22;383;48.766;9.270;2023-07-20T12:02:34;28.10;38.50
802;DHT22;383;48.766;9.270;2023-07-20T12:05:02;28.10;38.90
802;DHT22;383;48.766;9.270;2023-07-20T12:07:34;28.20;39.50
802;DHT22;383;48.766;9.270;2023-07-20T12:10:06;28.10;39.10
802;DHT22;383;48.766;9.270;2023-07-20T12:12:33;27.90;39.70
802;DHT22;383;48.766;9.270;2023-07-20T12:15:14;28.10;38.90
802;DHT22;383;48.766;9.270;2023-07-20T12:17:44;28.10;38.90
802;DHT22;383;48.766;9.270;2023-07-20T12:20:11;28.00;38.00
802;DHT22;383;48.766;9.270;2023-07-20T12:22:39;27.70;38.90
802;DHT22;383;48.766;9.270;2023-07-20T12:25:07;27.60;40.20
802;DHT22;383;48.766;9.270;2023-07-20T12:27:36;27.70;38.80
802;DHT22;383;48.766;9.270;2023-07-20T12:30:04;27.80;38.90
802;DHT22;383;48.766;9.270;2023-07-20T12:32:33;28.00;38.60
802;DHT22;383;48.766;9.270;2023-07-20T12:34:59;27.90;37.50
802;DHT22;383;48.766;9.270;2023-07-20T12:37:26;27.80;38.90
802;DHT22;383;48.766;9.270;2023-07-20T12:39:53;28.00;38.40
802;DHT22;383;48.766;9.270;2023-07-20T12:42:20;27.90;38.80
802;DHT22;383;48.766;9.270;2023-07-20T12:44:48;28.00;38.60
802;DHT22;383;48.766;9.270;2023-07-20T12:47:16;28.00;37.30
802;DHT22;383;48.766;9.270;2023-07-20T12:49:44;28.10;37.10
802;DHT22;383;48.766;9.270;2023-07-20T12:52:12;28.10;36.90
802;DHT22;383;48.766;9.270;2023-07-20T12:54:38;27.90;37.90
802;DHT22;383;48.766;9.270;2023-07-20T12:57:06;28.00;38.60
802;DHT22;383;48.766;9.270;2023-07-20T12:59:32;27.90;37.60
802;DHT22;383;48.766;9.270;2023-07-20T13:02:00;27.80;38.40
802;DHT22;383;48.766;9.270;2023-07-20T13:04:27;27.90;38.30
802;DHT22;383;48.766;9.270;2023-07-20T13:06:55;28.00;38.50
802;DHT22;383;48.766;9.270;2023-07-20T13:09:23;28.00;38.30
802;DHT22;383;48.766;9.270;2023-07-20T13:11:50;27.80;38.00
802;DHT22;383;48.766;9.270;2023-07-20T13:14:18;28.00;38.00
802;DHT22;383;48.766;9.270;2023-07-20T13:16:44;28.10;38.50
802;DHT22;383;48.766;9.270;2023-07-20T13:19:11;28.20;38.30
802;DHT22;383;48.766;9.270;2023-07-20T13:21:38;28.30;38.80
802;DHT22;383;48.766;9.270;2023-07-20T13:24:06;28.70;36.00
802;DHT22;383;48.766;9.270;2023-07-20T13:26:33;28.90;36.80
802;DHT22;383;48.766;9.270;2023-07-20T13:29:00;29.10;36.00
802;DHT22;383;48.766;9.270;2023-07-20T13:31:26;29.20;36.30
802;DHT22;383;48.766;9.270;2023-07-20T13:33:53;29.10;35.90
802;DHT22;383;48.766;9.270;2023-07-20T13:36:20;29.20;36.30
802;DHT22;383;48.766;9.270;2023-07-20T13:38:47;29.40;36.20
802;DHT22;383;48.766;9.270;2023-07-20T13:41:15;29.50;35.00
802;DHT22;383;48.766;9.270;2023-07-20T13:43:42;29.40;35.40
802;DHT22;383;48.766;9.270;2023-07-20T13:46:09;29.40;36.50
802;DHT22;383;48.766;9.270;2023-07-20T13:48:36;29.30;35.40
802;DHT22;383;48.766;9.270;2023-07-20T13:51:03;29.50;35.40
802;DHT22;383;48.766;9.270;2023-07-20T13:53:29;29.50;35.20
802;DHT22;383;48.766;9.270;2023-07-20T13:55:56;29.60;34.20
802;DHT22;383;48.766;9.270;2023-07-20T13:58:25;29.60;33.70
802;DHT22;383;48.766;9.270;2023-07-20T14:00:51;29.50;34.90
802;DHT22;383;48.766;9.270;2023-07-20T14:03:18;29.80;34.00
802;DHT22;383;48.766;9.270;2023-07-20T14:05:45;30.10;34.70
802;DHT22;383;48.766;9.270;2023-07-20T14:08:11;30.20;33.40
802;DHT22;383;48.766;9.270;2023-07-20T14:10:38;30.20;33.60
802;DHT22;383;48.766;9.270;2023-07-20T14:13:05;30.40;32.80
802;DHT22;383;48.766;9.270;2023-07-20T14:15:34;30.40;33.20
802;DHT22;383;48.766;9.270;2023-07-20T14:18:01;30.50;33.10
802;DHT22;383;48.766;9.270;2023-07-20T14:20:28;30.50;32.70
802;DHT22;383;48.766;9.270;2023-07-20T14:22:54;30.30;32.70
802;DHT22;383;48.766;9.270;2023-07-20T14:25:21;30.30;33.60
802;DHT22;383;48.766;9.270;2023-07-20T14:27:48;30.00;33.70
802;DHT22;383;48.766;9.270;2023-07-20T14:30:15;30.10;34.00
802;DHT22;383;48.766;9.270;2023-07-20T14:32:43;30.00;33.40
802;DHT22;383;48.766;9.270;2023-07-20T14:35:10;29.80;35.30
802;DHT22;383;48.766;9.270;2023-07-20T14:37:36;29.90;33.40
802;DHT22;383;48.766;9.270;2023-07-20T14:40:04;30.00;34.70
802;DHT22;383;48.766;9.270;2023-07-20T14:42:32;30.20;33.20
802;DHT22;383;48.766;9.270;2023-07-20T14:44:59;30.50;32.80
802;DHT22;383;48.766;9.270;2023-07-20T14:47:25;30.60;32.60
802;DHT22;383;48.766;9.270;2023-07-20T14:49:54;30.70;32.80
802;DHT22;383;48.766;9.270;2023-07-20T14:52:21;30.80;32.30
802;DHT22;383;48.766;9.270;2023-07-20T14:54:47;30.90;32.80
802;DHT22;383;48.766;9.270;2023-07-20T14:57:14;31.10;32.10
802;DHT22;383;48.766;9.270;2023-07-20T14:59:42;31.20;32.10
802;DHT22;383;48.766;9.270;2023-07-20T15:02:10;31.30;30.90
802;DHT22;383;48.766;9.270;2023-07-20T15:04:37;31.40;30.80
802;DHT22;383;48.766;9.270;2023-07-20T15:07:05;31.40;30.90
802;DHT22;383;48.766;9.270;2023-07-20T15:09:32;31.40;31.20
802;DHT22;383;48.766;9.270;2023-07-20T15:11:59;31.40;30.70
802;DHT22;383;48.766;9.270;2023-07-20T15:14:26;31.50;30.20
802;DHT22;383;48.766;9.270;2023-07-20T15:16:52;31.50;30.70
802;DHT22;383;48.766;9.270;2023-07-20T15:19:19;31.50;30.70
802;DHT22;383;48.766;9.270;2023-07-20T15:21:47;31.40;29.50
802;DHT22;383;48.766;9.270;2023-07-20T15:24:15;31.20;31.60
802;DHT22;383;48.766;9.270;2023-07-20T15:26:42;31.10;30.50
802;DHT22;383;48.766;9.270;2023-07-20T15:29:09;30.80;31.30
802;DHT22;383;48.766;9.270;2023-07-20T15:31:36;30.60;32.10
802;DHT22;383;48.766;9.270;2023-07-20T15:34:02;30.80;30.90
802;DHT22;383;48.766;9.270;2023-07-20T15:36:29;30.80;30.50
802;DHT22;383;48.766;9.270;2023-07-20T15:38:56;30.90;31.30
802;DHT22;383;48.766;9.270;2023-07-20T15:41:24;30.90;31.60
802;DHT22;383;48.766;9.270;2023-07-20T15:43:50;31.00;30.70
802;DHT22;383;48.766;9.270;2023-07-20T15:49:17;30.70;31.20
802;DHT22;383;48.766;9.270;2023-07-20T15:51:43;30.60;31.20
802;DHT22;383;48.766;9.270;2023-07-20T15:54:12;30.50;31.70
802;DHT22;383;48.766;9.270;2023-07-20T15:56:41;30.50;31.40
802;DHT22;383;48.766;9.270;2023-07-20T15:59:10;30.60;31.70
802;DHT22;383;48.766;9.270;2023-07-20T16:01:37;30.70;32.10
802;DHT22;383;48.766;9.270;2023-07-20T16:04:04;30.70;30.30
802;DHT22;383;48.766;9.270;2023-07-20T16:06:31;30.60;31.40
802;DHT22;383;48.766;9.270;2023-07-20T16:09:01;30.60;32.10
802;DHT22;383;48.766;9.270;2023-07-20T16:11:28;30.40;30.90
802;DHT22;383;48.766;9.270;2023-07-20T16:13:56;30.30;31.80
802;DHT22;383;48.766;9.270;2023-07-20T16:16:22;30.20;31.60
802;DHT22;383;48.766;9.270;2023-07-20T16:18:50;30.10;32.30
802;DHT22;383;48.766;9.270;2023-07-20T16:21:16;30.00;32.60
802;DHT22;383;48.766;9.270;2023-07-20T16:23:44;30.00;32.80
802;DHT22;383;48.766;9.270;2023-07-20T16:26:10;30.00;33.10
802;DHT22;383;48.766;9.270;2023-07-20T16:28:37;30.10;33.30
802;DHT22;383;48.766;9.270;2023-07-20T16:31:10;30.20;32.20
802;DHT22;383;48.766;9.270;2023-07-20T16:33:37;30.30;32.90
802;DHT22;383;48.766;9.270;2023-07-20T16:36:08;30.20;32.90
802;DHT22;383;48.766;9.270;2023-07-20T16:38:34;30.10;32.90
802;DHT22;383;48.766;9.270;2023-07-20T16:41:02;30.00;32.70